Time;durP1;ratioP1;P1;durP2;ratioP2;P2;SDS_P1;SDS_P2;PMS_P1;PMS_P2;Temp;Humidity;BMP_temperature;BMP_pressure;BME280_temperature;BME280_humidity;BME280_pressure;Samples;Min_cycle;Max_cycle;Signal;HPM_P1;HPM_P2
2022/09/21 00:00:51;;;;;;;6.80;2.40;;;;;;;;;;4890599;28;20204;-42
2022/09/21 00:03:17;;;;;;;5.47;2.70;;;;;;;;;;4889307;29;20168;-43
2022/09/21 00:05:44;;;;;;;7.43;2.60;;;;;;;;;;4890281;29;20742;-43
2022/09/21 00:08:11;;;;;;;5.73;2.70;;;;;;;;;;4890801;29;20176;-43
2022/09/21 00:10:37;;;;;;;8.10;2.80;;;;;;;;;;4885229;29;20192;-43
2022/09/21 00:13:03;;;;;;;4.03;2.80;;;;;;;;;;4889903;29;20743;-45
2022/09/21 00:15:30;;;;;;;5.57;2.90;;;;;;;;;;4891345;29;20348;-43
2022/09/21 00:17:57;;;;;;;6.53;2.53;;;;;;;;;;4892229;29;20205;-43
2022/09/21 00:20:23;;;;;;;6.97;2.70;;;;;;;;;;4890079;29;20180;-43
2022/09/21 00:22:50;;;;;;;7.37;2.70;;;;;;;;;;4885250;29;20236;-43
2022/09/21 00:25:16;;;;;;;6.33;2.67;;;;;;;;;;4888434;29;20208;-43
2022/09/21 00:27:43;;;;;;;5.87;2.80;;;;;;;;;;4892447;29;20600;-43
2022/09/21 00:30:10;;;;;;;3.40;2.37;;;;;;;;;;4891888;29;20227;-43
2022/09/21 00:32:38;;;;;;;4.63;3.23;;;;;;;;;;4890759;29;20657;-43
2022/09/21 00:35:06;;;;;;;5.97;3.07;;;;;;;;;;4889280;29;20192;-43
2022/09/21 00:37:33;;;;;;;9.33;3.23;;;;;;;;;;4889738;29;20184;-43
2022/09/21 00:39:59;;;;;;;5.53;2.77;;;;;;;;;;4889078;29;20972;-42
2022/09/21 00:42:27;;;;;;;4.13;2.43;;;;;;;;;;4892534;29;20223;-41
2022/09/21 00:44:53;;;;;;;5.90;3.03;;;;;;;;;;4889813;29;20176;-43
2022/09/21 00:47:21;;;;;;;5.33;3.00;;;;;;;;;;4884633;29;20203;-43
2022/09/21 00:49:49;;;;;;;6.43;2.83;;;;;;;;;;4883942;29;21780;-43
2022/09/21 00:52:18;;;;;;;5.50;3.07;;;;;;;;;;4891280;29;20188;-43
2022/09/21 00:55:03;;;;;;;3.53;2.60;;;;;;;;;;4892841;29;20611;-43
2022/09/21 00:57:31;;;;;;;6.20;3.13;;;;;;;;;;4891585;29;20629;-43
2022/09/21 00:59:58;;;;;;;5.90;2.80;;;;;;;;;;4888613;29;20180;-43
2022/09/21 01:02:24;;;;;;;5.40;3.30;;;;;;;;;;4889074;29;20626;-43
2022/09/21 01:04:55;;;;;;;4.60;2.83;;;;;;;;;;4890427;29;20183;-43
2022/09/21 01:07:25;;;;;;;5.10;2.93;;;;;;;;;;4894759;29;20645;-43
2022/09/21 01:09:52;;;;;;;5.73;3.23;;;;;;;;;;4890202;29;20578;-43
2022/09/21 01:12:19;;;;;;;5.67;3.97;;;;;;;;;;4888900;29;20412;-43
2022/09/21 01:14:54;;;;;;;10.77;3.97;;;;;;;;;;4888925;29;20185;-43
2022/09/21 01:17:24;;;;;;;7.80;3.73;;;;;;;;;;4886324;29;20180;-43
2022/09/21 01:20:05;;;;;;;6.37;3.10;;;;;;;;;;4888963;29;20188;-43
2022/09/21 01:22:50;;;;;;;6.10;3.60;;;;;;;;;;4889782;28;20400;-43
2022/09/21 01:25:52;;;;;;;8.23;3.87;;;;;;;;;;4886861;29;20211;-43
2022/09/21 01:28:23;;;;;;;7.87;3.13;;;;;;;;;;4920329;28;20190;-42
2022/09/21 01:30:51;;;;;;;4.80;3.00;;;;;;;;;;4894429;28;20367;-43
2022/09/21 01:33:29;;;;;;;6.73;3.30;;;;;;;;;;4887710;29;20205;-43
2022/09/21 01:35:57;;;;;;;7.40;3.53;;;;;;;;;;4887305;29;20453;-43
2022/09/21 01:38:29;;;;;;;8.87;3.70;;;;;;;;;;4887259;29;21312;-43
2022/09/21 01:41:00;;;;;;;6.90;3.53;;;;;;;;;;4887400;29;21120;-43
2022/09/21 01:43:31;;;;;;;6.73;3.70;;;;;;;;;;4887251;29;20569;-43
2022/09/21 01:46:00;;;;;;;7.33;3.53;;;;;;;;;;4884519;29;20374;-43
2022/09/21 01:48:27;;;;;;;7.37;3.00;;;;;;;;;;4880931;29;20412;-43
2022/09/21 01:50:55;;;;;;;4.70;3.07;;;;;;;;;;4882768;29;20188;-43
2022/09/21 01:53:33;;;;;;;4.83;2.70;;;;;;;;;;4882269;29;20298;-43
2022/09/21 01:56:04;;;;;;;6.50;2.80;;;;;;;;;;4886184;29;20692;-43
2022/09/21 01:58:33;;;;;;;5.53;3.23;;;;;;;;;;4886486;29;20188;-43
2022/09/21 02:00:59;;;;;;;5.63;3.27;;;;;;;;;;4881668;29;20481;-43
2022/09/21 02:03:30;;;;;;;4.90;2.80;;;;;;;;;;4881107;28;20238;-43
2022/09/21 02:05:57;;;;;;;6.93;2.90;;;;;;;;;;4886539;29;20188;-43
2022/09/21 02:08:27;;;;;;;5.13;3.33;;;;;;;;;;4881259;29;20176;-43
2022/09/21 02:10:54;;;;;;;4.43;3.40;;;;;;;;;;4884086;29;20519;-42
2022/09/21 02:13:24;;;;;;;9.77;3.80;;;;;;;;;;4879708;29;20207;-43
2022/09/21 02:16:11;;;;;;;5.23;3.20;;;;;;;;;;4887607;29;20222;-43
2022/09/21 02:18:57;;;;;;;7.77;3.80;;;;;;;;;;4890535;29;20291;-43
2022/09/21 02:21:23;;;;;;;5.13;3.30;;;;;;;;;;4886104;29;20947;-44
2022/09/21 02:23:54;;;;;;;4.50;3.30;;;;;;;;;;4882778;29;20881;-43
2022/09/21 02:26:26;;;;;;;5.90;3.70;;;;;;;;;;4885551;29;20255;-43
2022/09/21 02:29:01;;;;;;;6.50;3.83;;;;;;;;;;4890690;28;21500;-43
2022/09/21 02:31:34;;;;;;;6.23;3.83;;;;;;;;;;4887160;29;20180;-43
2022/09/21 02:34:08;;;;;;;5.27;4.17;;;;;;;;;;4887685;29;20291;-43
2022/09/21 02:36:42;;;;;;;7.13;4.20;;;;;;;;;;4885065;29;20191;-43
2022/09/21 02:39:19;;;;;;;6.83;4.03;;;;;;;;;;4884094;29;20184;-43
2022/09/21 02:42:03;;;;;;;8.87;4.30;;;;;;;;;;4884766;29;20782;-43
2022/09/21 02:44:32;;;;;;;7.10;4.17;;;;;;;;;;4887433;29;20671;-44
2022/09/21 02:47:00;;;;;;;5.63;4.03;;;;;;;;;;4889575;29;20267;-43
2022/09/21 02:49:38;;;;;;;6.37;3.70;;;;;;;;;;4886812;29;20583;-43
2022/09/21 02:52:10;;;;;;;6.17;3.70;;;;;;;;;;4885398;29;20219;-43
2022/09/21 02:54:36;;;;;;;7.77;3.53;;;;;;;;;;4884120;29;20184;-43
2022/09/21 02:57:03;;;;;;;8.00;3.60;;;;;;;;;;4888333;29;20271;-43
2022/09/21 02:59:30;;;;;;;6.63;3.70;;;;;;;;;;4886575;28;20184;-42
2022/09/21 03:01:56;;;;;;;5.93;3.60;;;;;;;;;;4886843;29;20282;-43
2022/09/21 03:04:22;;;;;;;6.37;3.20;;;;;;;;;;4886595;29;20181;-43
2022/09/21 03:06:48;;;;;;;7.03;3.17;;;;;;;;;;4884834;29;20915;-43
2022/09/21 03:09:16;;;;;;;5.33;3.00;;;;;;;;;;4882792;29;20271;-43
2022/09/21 03:11:42;;;;;;;4.77;2.97;;;;;;;;;;4887907;29;20933;-43
2022/09/21 03:14:08;;;;;;;3.77;2.70;;;;;;;;;;4889076;29;20283;-43
2022/09/21 03:16:35;;;;;;;7.57;2.50;;;;;;;;;;4886503;29;20200;-43
2022/09/21 03:19:01;;;;;;;7.33;2.80;;;;;;;;;;4887065;29;20329;-43
2022/09/21 03:21:27;;;;;;;7.50;2.87;;;;;;;;;;4883022;29;20633;-43
2022/09/21 03:23:53;;;;;;;4.47;2.80;;;;;;;;;;4884920;29;20185;-43
2022/09/21 03:26:21;;;;;;;4.00;2.60;;;;;;;;;;4886596;29;20375;-43
2022/09/21 03:28:47;;;;;;;3.60;2.70;;;;;;;;;;4887679;28;20219;-43
2022/09/21 03:31:14;;;;;;;4.60;2.73;;;;;;;;;;4883980;29;20251;-43
2022/09/21 03:33:40;;;;;;;3.83;2.53;;;;;;;;;;4884740;28;20531;-43
2022/09/21 03:36:06;;;;;;;4.50;2.60;;;;;;;;;;4886785;28;21002;-43
2022/09/21 03:38:33;;;;;;;4.60;2.60;;;;;;;;;;4885778;29;20195;-43
2022/09/21 03:40:59;;;;;;;3.70;2.50;;;;;;;;;;4884073;29;20872;-43
2022/09/21 03:43:25;;;;;;;4.10;2.50;;;;;;;;;;4885916;29;20307;-42
2022/09/21 03:45:52;;;;;;;8.03;2.97;;;;;;;;;;4888532;29;20188;-43
2022/09/21 03:48:18;;;;;;;5.97;2.93;;;;;;;;;;4888982;29;20635;-43
2022/09/21 03:50:44;;;;;;;5.97;3.17;;;;;;;;;;4883129;29;20701;-43
2022/09/21 03:53:11;;;;;;;6.57;3.00;;;;;;;;;;4879761;29;20183;-44
2022/09/21 03:55:37;;;;;;;4.87;2.90;;;;;;;;;;4881150;29;20844;-44
2022/09/21 03:58:03;;;;;;;4.43;2.70;;;;;;;;;;4888708;29;20184;-43
2022/09/21 04:00:29;;;;;;;5.83;3.27;;;;;;;;;;4881106;29;20231;-43
2022/09/21 04:02:56;;;;;;;9.43;3.87;;;;;;;;;;4885324;29;20287;-43
2022/09/21 04:05:22;;;;;;;12.20;4.10;;;;;;;;;;4878563;29;20184;-43
2022/09/21 04:07:48;;;;;;;13.10;3.60;;;;;;;;;;4880547;29;20380;-43
2022/09/21 04:10:17;;;;;;;9.27;3.80;;;;;;;;;;4879469;29;20879;-44
2022/09/21 04:12:44;;;;;;;8.17;3.50;;;;;;;;;;4888098;29;20189;-43
2022/09/21 04:15:11;;;;;;;13.90;4.00;;;;;;;;;;4883324;29;21202;-43
2022/09/21 04:17:37;;;;;;;15.60;4.00;;;;;;;;;;4876613;29;20198;-43
2022/09/21 04:20:04;;;;;;;8.73;3.47;;;;;;;;;;4874313;29;20239;-43
2022/09/21 04:22:30;;;;;;;10.80;3.50;;;;;;;;;;4882233;29;20204;-43
2022/09/21 04:24:56;;;;;;;5.57;3.43;;;;;;;;;;4888475;29;20654;-43
2022/09/21 04:27:23;;;;;;;4.60;3.63;;;;;;;;;;4890342;29;20639;-43
2022/09/21 04:29:49;;;;;;;6.37;3.47;;;;;;;;;;4888668;29;20694;-43
2022/09/21 04:32:15;;;;;;;7.23;3.50;;;;;;;;;;4883562;29;20552;-43
2022/09/21 04:34:41;;;;;;;9.53;3.70;;;;;;;;;;4885551;29;20586;-43
2022/09/21 04:37:10;;;;;;;8.77;4.03;;;;;;;;;;4886419;29;20188;-43
2022/09/21 04:39:36;;;;;;;5.17;3.50;;;;;;;;;;4892174;29;20432;-43
2022/09/21 04:42:02;;;;;;;4.90;3.60;;;;;;;;;;4890114;29;21217;-43
2022/09/21 04:44:29;;;;;;;5.97;3.40;;;;;;;;;;4888803;29;21023;-43
2022/09/21 04:46:55;;;;;;;6.00;3.73;;;;;;;;;;4884231;29;20226;-44
2022/09/21 04:49:21;;;;;;;8.60;3.93;;;;;;;;;;4883532;29;20827;-45
2022/09/21 04:51:47;;;;;;;6.73;3.90;;;;;;;;;;4888723;29;20498;-43
2022/09/21 04:54:13;;;;;;;5.83;4.00;;;;;;;;;;4888887;29;20934;-43
2022/09/21 04:56:39;;;;;;;7.50;4.67;;;;;;;;;;4887682;29;20188;-43
2022/09/21 04:59:05;;;;;;;5.90;4.20;;;;;;;;;;4889400;29;20294;-43
2022/09/21 05:01:31;;;;;;;7.50;4.27;;;;;;;;;;4884086;29;20841;-43
2022/09/21 05:04:00;;;;;;;8.43;4.93;;;;;;;;;;4888433;29;20183;-43
2022/09/21 05:06:27;;;;;;;5.37;3.80;;;;;;;;;;4891327;29;20176;-44
2022/09/21 05:11:38;;;;;;;4.27;3.60;;;;;;;;;;4886494;29;20199;-43
2022/09/21 05:14:04;;;;;;;6.03;4.30;;;;;;;;;;4880672;28;21770;-44
2022/09/21 05:16:30;;;;;;;7.57;3.80;;;;;;;;;;4905706;28;20190;-43
2022/09/21 05:18:56;;;;;;;10.00;3.93;;;;;;;;;;4906656;28;20184;-43
2022/09/21 05:21:22;;;;;;;7.23;4.17;;;;;;;;;;4905869;28;20204;-42
2022/09/21 05:23:48;;;;;;;7.10;3.67;;;;;;;;;;4905682;28;20643;-43
2022/09/21 05:26:15;;;;;;;6.37;3.73;;;;;;;;;;4903631;28;20242;-43
2022/09/21 05:28:41;;;;;;;6.00;3.87;;;;;;;;;;4907073;28;20184;-43
2022/09/21 05:31:30;;;;;;;9.67;4.00;;;;;;;;;;4905626;28;20188;-42
2022/09/21 05:34:02;;;;;;;7.17;3.87;;;;;;;;;;4905524;28;20183;-42
2022/09/21 05:36:28;;;;;;;6.57;3.70;;;;;;;;;;4900313;28;20431;-43
2022/09/21 05:38:55;;;;;;;9.03;3.60;;;;;;;;;;4905197;28;20195;-43
2022/09/21 05:41:21;;;;;;;9.77;4.27;;;;;;;;;;4905189;28;20570;-43
2022/09/21 05:43:48;;;;;;;5.80;3.37;;;;;;;;;;4904177;28;20180;-43
2022/09/21 05:46:20;;;;;;;6.83;4.07;;;;;;;;;;4900092;28;20246;-42
2022/09/21 05:49:06;;;;;;;9.17;3.93;;;;;;;;;;4907461;28;20687;-43
2022/09/21 05:51:50;;;;;;;10.17;3.80;;;;;;;;;;4921848;28;20228;-43
2022/09/21 05:54:21;;;;;;;5.53;3.60;;;;;;;;;;4912887;28;20184;-43
2022/09/21 05:56:51;;;;;;;6.27;3.67;;;;;;;;;;4913316;28;20415;-41
2022/09/21 05:59:24;;;;;;;10.40;3.73;;;;;;;;;;4916434;28;20732;-43
2022/09/21 06:01:56;;;;;;;8.53;3.53;;;;;;;;;;4913809;28;20654;-43
2022/09/21 06:04:22;;;;;;;6.40;3.33;;;;;;;;;;4914615;28;20175;-43
2022/09/21 06:06:48;;;;;;;5.87;3.80;;;;;;;;;;4912174;28;20179;-43
2022/09/21 06:09:14;;;;;;;7.67;3.50;;;;;;;;;;4923176;28;20827;-43
2022/09/21 06:11:40;;;;;;;7.67;3.47;;;;;;;;;;4916669;28;20179;-43
2022/09/21 06:14:06;;;;;;;10.13;3.37;;;;;;;;;;4926041;28;20707;-44
2022/09/21 06:16:36;;;;;;;9.43;3.40;;;;;;;;;;4909809;28;20183;-43
2022/09/21 06:19:02;;;;;;;10.13;3.33;;;;;;;;;;4911036;28;20336;-43
2022/09/21 06:21:29;;;;;;;8.60;3.30;;;;;;;;;;4916506;28;20881;-43
2022/09/21 06:23:55;;;;;;;8.33;3.60;;;;;;;;;;4918627;28;20191;-43
2022/09/21 06:26:21;;;;;;;5.90;3.03;;;;;;;;;;4912544;28;20186;-44
2022/09/21 06:28:47;;;;;;;6.50;3.00;;;;;;;;;;4911579;28;20758;-44
2022/09/21 06:31:13;;;;;;;6.27;2.93;;;;;;;;;;4914567;28;20720;-43
2022/09/21 06:33:39;;;;;;;6.83;3.10;;;;;;;;;;4915064;28;20191;-43
2022/09/21 06:36:05;;;;;;;7.23;3.30;;;;;;;;;;4914831;28;20486;-44
2022/09/21 06:38:34;;;;;;;7.13;3.07;;;;;;;;;;4913780;28;20191;-44
2022/09/21 06:41:03;;;;;;;5.87;2.50;;;;;;;;;;4911334;28;20179;-43
2022/09/21 06:43:30;;;;;;;5.30;2.70;;;;;;;;;;4913560;28;20328;-44
2022/09/21 06:45:57;;;;;;;8.13;2.90;;;;;;;;;;4913942;28;20185;-43
2022/09/21 06:48:24;;;;;;;7.83;2.20;;;;;;;;;;4916548;28;20183;-42
2022/09/21 06:50:50;;;;;;;8.40;2.13;;;;;;;;;;4912932;28;20199;-44
2022/09/21 06:53:17;;;;;;;6.27;2.33;;;;;;;;;;4911771;28;20878;-43
2022/09/21 06:55:43;;;;;;;6.87;2.43;;;;;;;;;;4916155;28;20656;-43
2022/09/21 06:58:09;;;;;;;8.30;2.10;;;;;;;;;;4908067;28;20188;-44
2022/09/21 07:00:35;;;;;;;6.23;1.80;;;;;;;;;;4913263;28;20989;-44
2022/09/21 07:03:01;;;;;;;4.47;1.93;;;;;;;;;;4911325;28;20199;-45
2022/09/21 07:05:27;;;;;;;6.30;2.10;;;;;;;;;;4908998;28;20186;-43
2022/09/21 07:07:57;;;;;;;5.97;2.03;;;;;;;;;;4914026;28;20178;-45
2022/09/21 07:10:24;;;;;;;6.37;1.73;;;;;;;;;;4911144;28;20172;-44
2022/09/21 07:12:51;;;;;;;7.33;2.00;;;;;;;;;;4911514;28;20756;-44
2022/09/21 07:15:18;;;;;;;6.77;1.70;;;;;;;;;;4911926;28;20756;-44
2022/09/21 07:17:44;;;;;;;5.90;1.60;;;;;;;;;;4911227;28;20480;-45
2022/09/21 07:20:11;;;;;;;5.73;2.30;;;;;;;;;;4914381;28;20210;-45
2022/09/21 07:22:37;;;;;;;4.77;1.83;;;;;;;;;;4919084;28;20270;-45
2022/09/21 07:25:04;;;;;;;8.07;2.17;;;;;;;;;;4919213;28;20191;-45
2022/09/21 07:27:31;;;;;;;5.30;1.83;;;;;;;;;;4915002;28;20183;-45
2022/09/21 07:29:57;;;;;;;9.23;2.53;;;;;;;;;;4914311;28;20179;-45
2022/09/21 07:32:24;;;;;;;5.07;1.87;;;;;;;;;;4911765;28;20172;-45
2022/09/21 07:34:55;;;;;;;9.40;2.10;;;;;;;;;;4906636;28;20309;-45
2022/09/21 07:37:22;;;;;;;4.43;2.10;;;;;;;;;;4917421;28;20179;-45
2022/09/21 07:39:48;;;;;;;7.43;2.70;;;;;;;;;;4916639;28;20186;-45
2022/09/21 07:42:14;;;;;;;4.80;2.30;;;;;;;;;;4911499;28;20364;-45
2022/09/21 07:44:41;;;;;;;5.37;2.33;;;;;;;;;;4913647;28;20818;-45
2022/09/21 07:47:07;;;;;;;7.43;2.10;;;;;;;;;;4911950;28;20248;-45
2022/09/21 07:49:33;;;;;;;6.17;2.63;;;;;;;;;;4918098;28;20176;-44
2022/09/21 07:52:00;;;;;;;5.83;1.80;;;;;;;;;;4912086;28;20775;-45
2022/09/21 07:54:26;;;;;;;4.70;1.93;;;;;;;;;;4907767;28;20195;-45
2022/09/21 07:59:37;;;;;;;6.80;1.60;;;;;;;;;;4923615;28;20218;-45
2022/09/21 08:02:03;;;;;;;4.73;1.67;;;;;;;;;;4920237;28;20466;-45
2022/09/21 08:04:29;;;;;;;2.83;1.37;;;;;;;;;;4915270;28;20501;-45
2022/09/21 08:06:55;;;;;;;2.97;1.93;;;;;;;;;;4918458;28;20297;-45
2022/09/21 08:09:21;;;;;;;6.03;1.53;;;;;;;;;;4914983;28;20186;-45
2022/09/21 08:11:47;;;;;;;3.00;1.50;;;;;;;;;;4915072;28;20358;-44
2022/09/21 08:14:18;;;;;;;2.93;1.33;;;;;;;;;;4918950;28;20183;-44
2022/09/21 08:16:45;;;;;;;2.97;1.53;;;;;;;;;;4917943;28;20410;-45
2022/09/21 08:19:11;;;;;;;4.70;1.63;;;;;;;;;;4918959;28;20188;-45
2022/09/21 08:21:37;;;;;;;3.50;1.40;;;;;;;;;;4911954;28;20199;-45
2022/09/21 08:24:04;;;;;;;3.67;1.75;;;;;;;;;;4917527;28;20919;-45
2022/09/21 08:26:30;;;;;;;2.13;1.43;;;;;;;;;;4917357;28;20458;-44
2022/09/21 08:28:57;;;;;;;4.03;1.67;;;;;;;;;;4915828;28;20180;-45
2022/09/21 08:31:25;;;;;;;3.87;1.60;;;;;;;;;;4912090;28;20586;-44
2022/09/21 08:33:52;;;;;;;3.57;1.50;;;;;;;;;;4910761;28;20707;-45
2022/09/21 08:36:18;;;;;;;3.87;1.40;;;;;;;;;;4917428;28;20183;-45
2022/09/21 08:38:45;;;;;;;3.83;1.20;;;;;;;;;;4920603;28;20471;-44
2022/09/21 08:41:20;;;;;;;3.13;1.40;;;;;;;;;;4918299;28;20199;-45
2022/09/21 08:43:49;;;;;;;4.50;1.63;;;;;;;;;;4916976;28;20190;-44
2022/09/21 08:46:17;;;;;;;2.50;1.23;;;;;;;;;;4917170;28;20497;-45
2022/09/21 08:48:46;;;;;;;6.57;1.60;;;;;;;;;;4920384;28;20242;-45
2022/09/21 08:51:15;;;;;;;2.17;1.40;;;;;;;;;;4917695;28;21022;-45
2022/09/21 08:53:43;;;;;;;3.33;1.50;;;;;;;;;;4911351;28;20630;-44
2022/09/21 08:56:12;;;;;;;2.93;1.43;;;;;;;;;;4916974;28;20171;-45
2022/09/21 08:58:40;;;;;;;6.10;1.47;;;;;;;;;;4919840;28;20172;-45
2022/09/21 09:01:12;;;;;;;2.10;1.33;;;;;;;;;;4921797;28;20704;-45
2022/09/21 09:03:47;;;;;;;3.93;1.40;;;;;;;;;;4917405;28;20187;-45
2022/09/21 09:06:26;;;;;;;4.63;1.37;;;;;;;;;;4915032;28;20182;-45
2022/09/21 09:09:10;;;;;;;4.80;1.50;;;;;;;;;;4916928;28;20191;-44
2022/09/21 09:11:55;;;;;;;2.23;1.30;;;;;;;;;;4917563;28;20175;-45
2022/09/21 09:14:29;;;;;;;6.10;1.73;;;;;;;;;;4917444;28;20191;-45
2022/09/21 09:17:13;;;;;;;4.40;1.40;;;;;;;;;;4918933;28;20195;-45
2022/09/21 09:19:51;;;;;;;4.93;1.60;;;;;;;;;;4919765;28;20183;-44
2022/09/21 09:22:21;;;;;;;2.37;1.43;;;;;;;;;;4918481;28;20541;-45
2022/09/21 09:24:51;;;;;;;3.07;1.30;;;;;;;;;;4915226;28;20286;-44
2022/09/21 09:27:21;;;;;;;2.50;1.40;;;;;;;;;;4916615;28;20659;-44
2022/09/21 09:30:02;;;;;;;3.03;1.20;;;;;;;;;;4921278;28;20700;-45
2022/09/21 09:32:33;;;;;;;5.27;1.30;;;;;;;;;;4918038;28;20298;-45
2022/09/21 09:35:07;;;;;;;4.40;1.40;;;;;;;;;;4918967;28;20194;-45
2022/09/21 09:37:36;;;;;;;3.07;1.10;;;;;;;;;;4916255;28;20188;-45
2022/09/21 09:40:02;;;;;;;6.33;1.63;;;;;;;;;;4912715;28;20179;-45
2022/09/21 09:42:36;;;;;;;4.27;1.50;;;;;;;;;;4916805;28;20211;-45
2022/09/21 09:45:02;;;;;;;1.93;1.50;;;;;;;;;;4922192;28;20179;-44
2022/09/21 09:47:46;;;;;;;3.17;1.60;;;;;;;;;;4917656;28;20727;-45
2022/09/21 09:50:13;;;;;;;3.37;1.50;;;;;;;;;;4914922;28;20873;-45
2022/09/21 09:52:39;;;;;;;6.90;1.80;;;;;;;;;;4913653;28;20900;-44
2022/09/21 09:55:14;;;;;;;3.87;1.30;;;;;;;;;;4917596;28;20192;-45
2022/09/21 09:57:40;;;;;;;3.97;1.50;;;;;;;;;;4920398;28;20210;-45
2022/09/21 10:00:11;;;;;;;5.47;1.67;;;;;;;;;;4921672;28;20962;-45
2022/09/21 10:02:46;;;;;;;2.93;1.30;;;;;;;;;;4915967;28;20943;-45
2022/09/21 10:05:19;;;;;;;6.60;1.83;;;;;;;;;;4914724;28;20175;-44
2022/09/21 10:07:45;;;;;;;5.87;1.97;;;;;;;;;;4916640;28;20652;-44
2022/09/21 10:10:31;;;;;;;3.17;1.60;;;;;;;;;;4919818;28;20906;-45
2022/09/21 10:13:12;;;;;;;4.27;1.80;;;;;;;;;;4919882;28;20187;-45
2022/09/21 10:15:58;;;;;;;4.67;1.90;;;;;;;;;;4914313;28;20175;-45
2022/09/21 10:18:43;;;;;;;5.27;1.73;;;;;;;;;;4912554;28;20735;-45
2022/09/21 10:21:15;;;;;;;3.27;1.90;;;;;;;;;;4914584;28;20622;-45
2022/09/21 10:23:45;;;;;;;2.00;1.60;;;;;;;;;;4917215;28;20683;-44
2022/09/21 10:26:13;;;;;;;4.90;1.80;;;;;;;;;;4917982;28;20180;-45
2022/09/21 10:28:54;;;;;;;3.97;1.77;;;;;;;;;;4916582;28;20509;-45
2022/09/21 10:31:25;;;;;;;2.37;1.50;;;;;;;;;;4913774;28;20840;-44
2022/09/21 10:33:53;;;;;;;2.50;1.50;;;;;;;;;;4915785;28;20568;-44
2022/09/21 10:36:31;;;;;;;2.70;1.30;;;;;;;;;;4916806;28;20179;-45
2022/09/21 10:39:09;;;;;;;2.83;1.60;;;;;;;;;;4918445;28;20179;-45
2022/09/21 10:41:37;;;;;;;2.07;1.53;;;;;;;;;;4915102;28;20234;-45
2022/09/21 10:44:03;;;;;;;4.90;2.03;;;;;;;;;;4913132;28;20998;-44
2022/09/21 10:46:33;;;;;;;4.47;1.77;;;;;;;;;;4912878;28;20295;-45
2022/09/21 10:49:00;;;;;;;3.83;1.53;;;;;;;;;;4916859;28;20191;-45
2022/09/21 10:51:28;;;;;;;4.03;1.53;;;;;;;;;;4918804;28;20927;-45
2022/09/21 10:53:54;;;;;;;2.17;1.57;;;;;;;;;;4915416;28;20895;-45
2022/09/21 10:56:20;;;;;;;3.20;1.40;;;;;;;;;;4913619;28;20908;-44
2022/09/21 10:59:05;;;;;;;3.93;1.20;;;;;;;;;;4916516;28;20285;-45
2022/09/21 11:01:31;;;;;;;2.10;1.30;;;;;;;;;;4919843;28;20482;-44
2022/09/21 11:04:02;;;;;;;4.93;1.40;;;;;;;;;;4916861;28;20621;-44
2022/09/21 11:06:39;;;;;;;5.50;1.50;;;;;;;;;;4913025;28;20803;-45
2022/09/21 11:09:28;;;;;;;4.83;1.40;;;;;;;;;;4916170;28;20454;-44
2022/09/21 11:11:58;;;;;;;2.73;1.50;;;;;;;;;;4917163;28;20191;-44
2022/09/21 11:14:43;;;;;;;3.73;1.40;;;;;;;;;;4917789;28;20196;-44
2022/09/21 11:17:09;;;;;;;3.17;1.50;;;;;;;;;;4929776;28;20489;-43
2022/09/21 11:19:38;;;;;;;4.57;1.57;;;;;;;;;;4915994;28;20647;-44
2022/09/21 11:22:11;;;;;;;4.27;1.40;;;;;;;;;;4914821;28;20253;-44
2022/09/21 11:24:47;;;;;;;3.30;1.50;;;;;;;;;;4919151;28;20258;-44
2022/09/21 11:27:25;;;;;;;4.33;1.37;;;;;;;;;;4917674;28;20285;-45
2022/09/21 11:30:11;;;;;;;3.30;1.70;;;;;;;;;;4916317;28;20711;-44
2022/09/21 11:32:37;;;;;;;2.17;1.20;;;;;;;;;;4909138;28;21015;-45
2022/09/21 11:35:23;;;;;;;4.03;1.30;;;;;;;;;;4917857;28;20191;-44
2022/09/21 11:38:08;;;;;;;3.83;1.13;;;;;;;;;;4916719;28;20190;-44
2022/09/21 11:40:44;;;;;;;3.80;0.90;;;;;;;;;;4930936;28;20805;-44
2022/09/21 11:43:30;;;;;;;3.73;1.00;;;;;;;;;;4916816;28;20221;-45
2022/09/21 11:46:01;;;;;;;2.03;0.93;;;;;;;;;;4919329;28;20572;-45
2022/09/21 11:48:27;;;;;;;2.33;0.90;;;;;;;;;;4917552;28;20488;-45
2022/09/21 11:50:59;;;;;;;3.53;1.00;;;;;;;;;;4915307;28;20184;-46
2022/09/21 11:53:28;;;;;;;5.50;1.13;;;;;;;;;;4916834;28;20920;-45
2022/09/21 11:56:07;;;;;;;3.50;0.97;;;;;;;;;;4920034;28;20187;-45
2022/09/21 11:58:40;;;;;;;4.07;0.97;;;;;;;;;;4920895;28;20509;-45
2022/09/21 12:01:08;;;;;;;3.03;0.87;;;;;;;;;;4923169;28;21143;-45
2022/09/21 12:03:49;;;;;;;4.87;1.13;;;;;;;;;;4917559;28;20609;-45
2022/09/21 12:06:16;;;;;;;2.23;0.93;;;;;;;;;;4915756;28;20647;-45
2022/09/21 12:08:48;;;;;;;3.37;1.00;;;;;;;;;;4917722;28;20172;-46
2022/09/21 12:11:20;;;;;;;3.10;1.00;;;;;;;;;;4920115;28;20187;-44
2022/09/21 12:13:57;;;;;;;5.37;1.07;;;;;;;;;;4920765;28;20186;-44
2022/09/21 12:16:41;;;;;;;2.87;0.80;;;;;;;;;;4917965;28;20348;-44
2022/09/21 12:19:07;;;;;;;3.17;1.10;;;;;;;;;;4925772;28;20179;-45
2022/09/21 12:21:38;;;;;;;4.67;0.87;;;;;;;;;;4919304;28;20200;-43
2022/09/21 12:24:10;;;;;;;1.60;0.90;;;;;;;;;;4921320;28;20649;-45
2022/09/21 12:26:38;;;;;;;2.60;1.07;;;;;;;;;;4917996;28;20171;-44
2022/09/21 12:29:07;;;;;;;3.47;1.00;;;;;;;;;;4913276;28;20188;-44
2022/09/21 12:31:44;;;;;;;1.57;0.80;;;;;;;;;;4920036;28;20184;-45
2022/09/21 12:34:15;;;;;;;2.50;0.80;;;;;;;;;;4916792;28;20838;-44
2022/09/21 12:36:44;;;;;;;3.70;1.00;;;;;;;;;;4917612;28;20274;-44
2022/09/21 12:39:10;;;;;;;3.87;1.00;;;;;;;;;;4918073;28;20364;-44
2022/09/21 12:41:40;;;;;;;3.53;1.00;;;;;;;;;;4920652;28;20211;-45
2022/09/21 12:44:19;;;;;;;2.80;1.00;;;;;;;;;;4919121;28;20258;-44
2022/09/21 12:46:53;;;;;;;2.67;0.80;;;;;;;;;;4914520;28;20183;-46
2022/09/21 12:49:27;;;;;;;2.47;0.90;;;;;;;;;;4921679;28;20191;-45
2022/09/21 12:51:58;;;;;;;2.13;0.80;;;;;;;;;;4919286;28;20226;-46
2022/09/21 12:54:36;;;;;;;3.27;0.80;;;;;;;;;;4914226;28;20471;-45
2022/09/21 12:57:30;;;;;;;4.90;0.83;;;;;;;;;;4918552;28;20198;-45
2022/09/21 13:00:09;;;;;;;4.50;1.20;;;;;;;;;;4922010;28;20946;-44
2022/09/21 13:02:39;;;;;;;3.80;1.03;;;;;;;;;;4919999;28;20269;-45
2022/09/21 13:05:22;;;;;;;2.90;0.83;;;;;;;;;;4916913;28;21144;-43
2022/09/21 13:07:50;;;;;;;2.13;1.00;;;;;;;;;;4918342;28;20222;-45
2022/09/21 13:10:22;;;;;;;1.80;0.80;;;;;;;;;;4921497;28;20176;-45
2022/09/21 13:12:53;;;;;;;2.60;0.90;;;;;;;;;;4920243;28;20295;-45
2022/09/21 13:15:27;;;;;;;1.53;0.80;;;;;;;;;;4917092;28;20171;-45
2022/09/21 13:17:59;;;;;;;3.70;1.03;;;;;;;;;;4917462;28;20751;-45
2022/09/21 13:20:25;;;;;;;1.90;0.70;;;;;;;;;;4922344;28;20179;-45
2022/09/21 13:23:00;;;;;;;2.13;0.73;;;;;;;;;;4920347;28;20286;-45
2022/09/21 13:25:28;;;;;;;2.70;0.80;;;;;;;;;;4916534;28;20184;-45
2022/09/21 13:28:03;;;;;;;3.93;0.90;;;;;;;;;;4918378;28;21002;-45
2022/09/21 13:30:39;;;;;;;2.30;0.83;;;;;;;;;;4911212;28;21086;-44
2022/09/21 13:33:17;;;;;;;2.93;1.10;;;;;;;;;;4912669;28;20287;-45
2022/09/21 13:36:03;;;;;;;3.00;0.90;;;;;;;;;;4913738;28;20175;-45
2022/09/21 13:38:44;;;;;;;3.20;0.70;;;;;;;;;;4913272;28;20194;-45
2022/09/21 13:41:16;;;;;;;2.37;0.80;;;;;;;;;;4918353;28;21089;-44
2022/09/21 13:43:57;;;;;;;3.60;0.80;;;;;;;;;;4915353;28;20179;-45
2022/09/21 13:46:36;;;;;;;2.90;0.70;;;;;;;;;;4915809;28;20538;-45
2022/09/21 13:49:12;;;;;;;2.83;0.80;;;;;;;;;;4915000;28;20789;-45
2022/09/21 13:52:17;;;;;;;2.30;0.63;;;;;;;;;;4913788;28;20902;-45
2022/09/21 13:54:49;;;;;;;1.43;0.70;;;;;;;;;;4927796;28;20593;-45
2022/09/21 13:57:15;;;;;;;2.83;0.70;;;;;;;;;;4929639;28;20234;-46
2022/09/21 13:59:42;;;;;;;1.80;0.90;;;;;;;;;;4920934;28;20457;-45
2022/09/21 14:02:27;;;;;;;2.73;0.70;;;;;;;;;;4907207;28;20761;-44
2022/09/21 14:04:53;;;;;;;0.67;0.53;;;;;;;;;;4912591;28;20612;-44
2022/09/21 14:07:19;;;;;;;1.40;0.67;;;;;;;;;;4912996;28;20178;-45
2022/09/21 14:09:57;;;;;;;0.80;0.50;;;;;;;;;;4914950;28;20176;-45
2022/09/21 14:12:24;;;;;;;3.07;0.60;;;;;;;;;;4917598;28;20202;-45
2022/09/21 14:15:11;;;;;;;1.47;0.70;;;;;;;;;;4917869;28;20214;-44
2022/09/21 14:17:38;;;;;;;1.17;0.67;;;;;;;;;;4917651;28;20199;-45
2022/09/21 14:20:24;;;;;;;2.80;0.90;;;;;;;;;;4915211;28;20596;-45
2022/09/21 14:23:09;;;;;;;1.33;0.67;;;;;;;;;;4917841;28;20201;-44
2022/09/21 14:25:48;;;;;;;2.17;0.70;;;;;;;;;;4917131;28;20881;-45
2022/09/21 14:28:41;;;;;;;1.33;0.70;;;;;;;;;;5040913;27;20875;-37
2022/09/21 14:31:26;;;;;;;1.97;0.70;;;;;;;;;;5023901;28;20573;-37
2022/09/21 14:33:54;;;;;;;2.40;0.90;;;;;;;;;;5022026;28;20179;-37
2022/09/21 14:36:29;;;;;;;1.60;0.70;;;;;;;;;;5026811;28;20206;-36
2022/09/21 14:38:59;;;;;;;3.53;0.80;;;;;;;;;;5027262;28;20519;-37
2022/09/21 14:41:26;;;;;;;0.70;0.70;;;;;;;;;;5029295;28;20171;-37
2022/09/21 14:43:55;;;;;;;1.57;0.80;;;;;;;;;;5026298;28;20648;-37
2022/09/21 14:46:31;;;;;;;2.07;0.80;;;;;;;;;;5026372;28;20712;-37
2022/09/21 14:49:09;;;;;;;3.30;0.90;;;;;;;;;;5024598;28;20172;-37
2022/09/21 14:51:39;;;;;;;2.60;0.70;;;;;;;;;;5027376;28;20560;-37
2022/09/21 14:54:25;;;;;;;2.20;0.60;;;;;;;;;;5028992;28;20648;-36
2022/09/21 14:56:52;;;;;;;3.23;0.70;;;;;;;;;;5028223;28;20397;-36
2022/09/21 14:59:20;;;;;;;2.63;0.70;;;;;;;;;;5022969;28;20639;-37
2022/09/21 15:01:58;;;;;;;2.73;0.80;;;;;;;;;;5027669;28;20357;-37
2022/09/21 15:04:24;;;;;;;2.20;0.70;;;;;;;;;;5029643;28;20230;-37
2022/09/21 15:13:01;;;;;;;4.43;0.63;;;;;;;;;;5024339;28;20326;-37
2022/09/21 15:15:40;;;;;;;2.97;0.60;;;;;;;;;;5028322;28;20681;-36